KSAV/SAV METAR and TAF weather

Enter ICAO airport designator
Station Type Date Time Source
KSAV METAR 2021/09/28 16:53 UTC NOAA

KSAV 281653Z 00000KT 10SM SCT043 28/17 A3005 RMK AO2 SLP176 T02780167


Station Type Date Time Source
KSAV Decoded METAR 2021/09/28 16:53 UTC NOAA

SAVANNAH INTERNATIONAL AIRPORT , GA, United States (KSAV) 32-07N 81-12W 14M
Sep 28, 2021 - 12:53 PM EDT / 2021.09.28 1653 UTC
Wind: Calm:0
Visibility: 10 mile(s):0
Sky conditions: partly cloudy
Temperature: 82.0 F (27.8 C)
Dew Point: 62.1 F (16.7 C)
Relative Humidity: 50%
Pressure (altimeter): 30.05 in. Hg (1017 hPa)
ob: KSAV 281653Z 00000KT 10SM SCT043 28/17 A3005 RMK AO2 SLP176 T02780167
cycle: 17

Station Type Date Time Source
KSAV TAF 2021/09/28 12:29 UTC NOAA

TAF KSAV 281124Z 2812/2912 25005KT P6SM SKC
FM282000 19007KT P6SM SCT060 SCT250
FM290000 20003KT P6SM FEW250

Example: see airport list